createdAt,value
2023-05-21T00:00:39.471Z,1.17
2023-05-21T00:03:14.565Z,1.27
2023-05-21T00:05:49.819Z,1.20
2023-05-21T00:08:24.591Z,1.20
2023-05-21T00:10:58.355Z,1.42
2023-05-21T00:13:28.349Z,1.48
2023-05-21T00:16:03.089Z,1.10
2023-05-21T00:18:36.064Z,1.40
2023-05-21T00:21:15.122Z,1.20
2023-05-21T00:23:49.623Z,1.02
2023-05-21T00:26:19.955Z,1.10
2023-05-21T00:28:57.175Z,1.20
2023-05-21T00:31:27.588Z,1.15
2023-05-21T00:33:57.829Z,1.42
2023-05-21T00:36:29.041Z,1.10
2023-05-21T00:38:58.794Z,1.08
2023-05-21T00:41:28.574Z,1.27
2023-05-21T00:44:01.366Z,1.17
2023-05-21T00:46:34.909Z,1.30
2023-05-21T00:49:04.618Z,1.17
2023-05-21T00:51:33.771Z,1.33
2023-05-21T00:54:03.333Z,1.30
2023-05-21T00:56:33.694Z,1.27
2023-05-21T00:59:06.474Z,1.08
2023-05-21T01:01:37.781Z,1.10
2023-05-21T01:04:06.991Z,1.00
2023-05-21T01:06:36.251Z,1.40
2023-05-21T01:09:07.780Z,1.10
2023-05-21T01:11:43.706Z,1.23
2023-05-21T01:14:15.592Z,1.13
2023-05-21T01:16:49.106Z,1.10
2023-05-21T01:19:26.943Z,1.02
2023-05-21T01:22:03.572Z,0.90
2023-05-21T01:24:33.121Z,1.02
2023-05-21T01:27:04.051Z,0.90
2023-05-21T01:29:33.204Z,1.00
2023-05-21T01:32:26.521Z,1.10
2023-05-21T01:35:16.432Z,1.00
2023-05-21T01:37:59.185Z,0.85
2023-05-21T01:40:45.890Z,0.70
2023-05-21T01:43:16.670Z,0.90
2023-05-21T01:45:48.655Z,0.77
2023-05-21T01:48:19.609Z,0.73
2023-05-21T01:50:49.382Z,0.85
2023-05-21T01:53:18.710Z,0.95
2023-05-21T01:55:47.899Z,0.90
2023-05-21T01:58:17.860Z,0.70
2023-05-21T02:00:47.559Z,0.90
2023-05-21T02:03:17.186Z,0.80
2023-05-21T02:05:46.742Z,0.82
2023-05-21T02:08:16.213Z,0.70
2023-05-21T02:10:45.243Z,0.70
2023-05-21T02:13:14.199Z,0.85
2023-05-21T02:15:43.479Z,0.60
2023-05-21T02:18:12.570Z,0.77
2023-05-21T02:20:41.748Z,0.80
2023-05-21T02:23:10.897Z,0.75
2023-05-21T02:25:40.387Z,1.02
2023-05-21T02:28:09.341Z,1.00
2023-05-21T02:30:38.683Z,0.90
2023-05-21T02:33:09.960Z,1.23
2023-05-21T02:35:39.346Z,0.80
2023-05-21T02:38:10.065Z,0.70
2023-05-21T02:40:39.176Z,1.08
2023-05-21T02:43:08.146Z,0.88
2023-05-21T02:45:37.405Z,0.82
2023-05-21T02:48:06.963Z,1.02
2023-05-21T02:50:40.845Z,0.80
2023-05-21T02:53:10.089Z,0.93
2023-05-21T02:55:39.386Z,1.00
2023-05-21T02:58:08.512Z,0.80
2023-05-21T03:00:37.776Z,0.50
2023-05-21T03:03:07.322Z,0.63
2023-05-21T03:05:37.706Z,0.60
2023-05-21T03:08:06.960Z,0.55
2023-05-21T03:10:36.077Z,0.90
2023-05-21T03:13:09.669Z,0.60
2023-05-21T03:15:39.931Z,0.70
2023-05-21T03:18:12.713Z,0.77
2023-05-21T03:20:47.623Z,0.60
2023-05-21T03:23:17.141Z,0.60
2023-05-21T03:25:46.927Z,0.60
2023-05-21T03:28:18.506Z,0.98
2023-05-21T03:30:52.888Z,0.50
2023-05-21T03:33:33.896Z,0.80
2023-05-21T03:36:08.508Z,0.63
2023-05-21T03:38:39.385Z,1.02
2023-05-21T03:41:10.082Z,0.82
2023-05-21T03:43:39.492Z,0.98
2023-05-21T03:46:08.576Z,1.08
2023-05-21T03:49:02.296Z,0.82
2023-05-21T03:51:33.698Z,0.80
2023-05-21T03:54:02.943Z,1.00
2023-05-21T03:56:32.654Z,0.70
2023-05-21T03:59:02.335Z,1.10
2023-05-21T04:01:33.866Z,0.90
2023-05-21T04:04:04.183Z,0.52
2023-05-21T04:06:34.021Z,0.85
2023-05-21T04:09:03.121Z,0.80
2023-05-21T04:11:32.319Z,0.70
2023-05-21T04:14:03.199Z,1.00
2023-05-21T04:16:35.650Z,0.60
2023-05-21T04:19:07.458Z,0.70
2023-05-21T04:21:40.010Z,0.75
2023-05-21T04:24:09.470Z,0.60
2023-05-21T04:26:51.345Z,0.50
2023-05-21T04:29:22.117Z,0.60
2023-05-21T04:31:55.363Z,0.70
2023-05-21T04:34:25.836Z,0.68
2023-05-21T04:36:54.996Z,0.70
2023-05-21T04:39:23.987Z,0.60
2023-05-21T04:41:55.466Z,0.82
2023-05-21T04:44:25.689Z,1.08
2023-05-21T04:46:58.251Z,0.73
2023-05-21T04:49:28.242Z,0.85
2023-05-21T04:51:57.969Z,0.88
2023-05-21T04:54:26.996Z,0.90
2023-05-21T04:56:56.772Z,0.80
2023-05-21T04:59:25.866Z,0.95
2023-05-21T05:01:54.756Z,1.00
2023-05-21T05:04:24.298Z,1.00
2023-05-21T05:06:53.384Z,0.60
2023-05-21T05:09:27.517Z,0.70
2023-05-21T05:11:56.717Z,0.77
2023-05-21T05:14:27.145Z,0.75
2023-05-21T05:17:00.706Z,0.90
2023-05-21T05:19:30.578Z,0.90
2023-05-21T05:21:59.785Z,0.70
2023-05-21T05:24:29.853Z,0.90
2023-05-21T05:26:58.923Z,1.20
2023-05-21T05:29:27.897Z,0.88
2023-05-21T05:31:56.919Z,1.10
2023-05-21T05:34:25.941Z,1.40
2023-05-21T05:36:55.019Z,0.93
2023-05-21T05:39:24.028Z,1.00
2023-05-21T05:41:53.550Z,0.93
2023-05-21T05:44:23.188Z,1.42
2023-05-21T05:46:52.710Z,1.00
2023-05-21T05:49:21.709Z,0.98
2023-05-21T05:51:50.729Z,1.00
2023-05-21T05:54:20.329Z,1.38
2023-05-21T05:56:49.357Z,1.15
2023-05-21T05:59:18.306Z,1.52
2023-05-21T06:01:51.014Z,1.30
2023-05-21T06:04:22.326Z,1.55
2023-05-21T06:06:51.770Z,1.40
2023-05-21T06:09:22.923Z,1.20
2023-05-21T06:11:51.968Z,1.40
2023-05-21T06:14:20.916Z,1.27
2023-05-21T06:16:50.855Z,1.40
2023-05-21T06:19:20.633Z,1.50
2023-05-21T06:21:49.947Z,1.50
2023-05-21T06:24:19.300Z,1.13
2023-05-21T06:26:48.662Z,1.58
2023-05-21T06:29:18.261Z,1.70
2023-05-21T06:31:49.538Z,1.42
2023-05-21T06:34:18.668Z,1.30
2023-05-21T06:36:48.378Z,3.42
2023-05-21T06:39:17.869Z,1.60
2023-05-21T06:41:47.309Z,1.85
2023-05-21T06:44:34.818Z,2.08
2023-05-21T06:47:27.093Z,1.40
2023-05-21T06:49:56.240Z,1.30
2023-05-21T06:52:27.514Z,2.03
2023-05-21T06:54:56.826Z,1.60
2023-05-21T06:57:28.298Z,1.80
2023-05-21T06:59:57.368Z,1.60
2023-05-21T07:02:26.717Z,1.70
2023-05-21T07:04:56.496Z,1.40
2023-05-21T07:07:25.534Z,1.58
2023-05-21T07:09:54.533Z,1.40
2023-05-21T07:12:23.512Z,1.50
2023-05-21T07:14:52.569Z,1.75
2023-05-21T07:17:22.326Z,2.00
2023-05-21T07:19:51.638Z,1.35
2023-05-21T07:22:20.719Z,1.48
2023-05-21T07:24:49.668Z,1.48
2023-05-21T07:29:53.940Z,1.92
2023-05-21T07:32:23.638Z,1.73
2023-05-21T07:34:54.310Z,1.50
2023-05-21T07:37:28.559Z,1.35
2023-05-21T07:40:00.715Z,1.70
2023-05-21T07:42:30.316Z,1.58
2023-05-21T07:44:59.858Z,2.17
2023-05-21T07:47:29.872Z,1.73
2023-05-21T07:50:03.190Z,1.77
2023-05-21T07:52:32.694Z,1.77
2023-05-21T07:55:04.000Z,1.88
2023-05-21T07:57:36.308Z,2.20
2023-05-21T08:00:11.113Z,2.10
2023-05-21T08:02:51.128Z,1.80
2023-05-21T08:05:22.109Z,2.08
2023-05-21T08:07:52.263Z,1.77
2023-05-21T08:10:22.115Z,2.13
2023-05-21T08:12:52.976Z,2.10
2023-05-21T08:15:23.350Z,2.08
2023-05-21T08:17:52.436Z,2.10
2023-05-21T08:20:22.533Z,1.90
2023-05-21T08:22:52.248Z,1.95
2023-05-21T08:25:22.006Z,2.50
2023-05-21T08:27:52.425Z,2.30
2023-05-21T08:30:22.281Z,2.03
2023-05-21T08:32:52.806Z,2.00
2023-05-21T08:35:22.422Z,1.73
2023-05-21T08:38:14.249Z,2.08
2023-05-21T08:40:56.979Z,1.90
2023-05-21T08:43:29.356Z,2.10
2023-05-21T08:46:04.658Z,1.95
2023-05-21T08:48:39.860Z,2.17
2023-05-21T08:51:08.961Z,1.42
2023-05-21T08:53:46.554Z,1.73
2023-05-21T08:56:19.242Z,1.65
2023-05-21T08:58:53.226Z,1.92
2023-05-21T09:01:27.202Z,2.05
2023-05-21T09:04:20.195Z,2.13
2023-05-21T09:06:52.728Z,2.67
2023-05-21T09:09:58.870Z,1.58
2023-05-21T09:12:29.385Z,1.63
2023-05-21T09:15:03.580Z,2.33
2023-05-21T09:17:35.748Z,2.08
2023-05-21T09:20:30.110Z,1.80
2023-05-21T09:23:07.588Z,2.00
2023-05-21T09:25:40.204Z,1.70
2023-05-21T09:28:15.311Z,2.45
2023-05-21T09:30:54.983Z,1.88
2023-05-21T09:33:30.250Z,1.70
2023-05-21T09:36:00.616Z,1.65
2023-05-21T09:38:30.323Z,1.95
2023-05-21T09:40:59.785Z,1.85
2023-05-21T09:43:32.214Z,1.85
2023-05-21T09:46:02.501Z,1.90
2023-05-21T09:48:36.330Z,1.60
2023-05-21T09:51:17.025Z,1.90
2023-05-21T09:53:54.788Z,2.00
2023-05-21T09:56:26.116Z,1.85
2023-05-21T09:58:58.803Z,2.15
2023-05-21T10:01:29.483Z,1.92
2023-05-21T10:04:00.120Z,2.03
2023-05-21T10:06:32.144Z,2.17
2023-05-21T10:09:05.837Z,1.80
2023-05-21T10:11:37.499Z,2.10
2023-05-21T10:14:08.484Z,1.80
2023-05-21T10:16:38.552Z,1.83
2023-05-21T10:19:11.662Z,1.70
2023-05-21T10:21:42.068Z,2.08
2023-05-21T10:24:11.983Z,2.10
2023-05-21T10:26:43.068Z,2.35
2023-05-21T10:29:13.580Z,1.80
2023-05-21T10:31:50.296Z,2.30
2023-05-21T10:34:20.808Z,2.05
2023-05-21T10:36:52.107Z,1.90
2023-05-21T10:39:23.405Z,1.90
2023-05-21T10:42:19.813Z,2.08
2023-05-21T10:45:16.672Z,2.00
2023-05-21T10:48:06.908Z,2.10
2023-05-21T10:51:16.770Z,2.63
2023-05-21T10:54:10.218Z,2.10
2023-05-21T10:57:08.719Z,2.05
2023-05-21T10:59:59.078Z,2.05
2023-05-21T11:02:29.901Z,2.10
2023-05-21T11:05:04.700Z,1.77
2023-05-21T11:08:03.233Z,2.47
2023-05-21T11:10:42.333Z,2.10
2023-05-21T11:13:16.308Z,2.40
2023-05-21T11:16:00.940Z,1.77
2023-05-21T11:18:39.283Z,2.70
2023-05-21T11:21:11.546Z,1.98
2023-05-21T11:23:53.405Z,2.42
2023-05-21T11:26:41.765Z,2.13
2023-05-21T11:29:12.074Z,2.10
2023-05-21T11:31:46.221Z,2.25
2023-05-21T11:34:29.082Z,2.05
2023-05-21T11:37:19.536Z,2.10
2023-05-21T11:39:49.615Z,2.05
2023-05-21T11:42:33.647Z,2.17
2023-05-21T11:45:05.081Z,2.30
2023-05-21T11:47:34.313Z,2.17
2023-05-21T11:50:05.272Z,2.63
2023-05-21T11:52:34.675Z,2.58
2023-05-21T11:55:04.237Z,2.03
2023-05-21T11:57:33.509Z,2.47
2023-05-21T12:00:07.985Z,2.47
2023-05-21T12:02:49.650Z,2.22
2023-05-21T12:05:19.024Z,2.40
2023-05-21T12:07:52.506Z,2.40
2023-05-21T12:10:24.817Z,4.20
2023-05-21T12:12:56.995Z,1.95
2023-05-21T12:15:28.338Z,2.72
2023-05-21T12:17:57.709Z,2.22
2023-05-21T12:20:30.140Z,2.72
2023-05-21T12:23:00.052Z,2.92
2023-05-21T12:25:30.695Z,3.13
2023-05-21T12:28:02.579Z,2.85
2023-05-21T12:30:32.642Z,2.60
2023-05-21T12:33:03.066Z,3.10
2023-05-21T12:35:33.704Z,2.75
2023-05-21T12:38:03.956Z,3.03
2023-05-21T12:40:40.234Z,2.85
2023-05-21T12:45:42.578Z,2.85
2023-05-21T12:48:13.292Z,2.78
2023-05-21T12:50:42.995Z,3.10
2023-05-21T12:53:12.860Z,2.47
2023-05-21T12:55:41.815Z,2.95
2023-05-21T12:58:15.272Z,2.25
2023-05-21T13:00:46.291Z,2.58
2023-05-21T13:03:15.540Z,3.00
2023-05-21T13:05:44.674Z,2.42
2023-05-21T13:08:15.489Z,3.30
2023-05-21T13:10:44.634Z,3.05
2023-05-21T13:13:13.883Z,2.65
2023-05-21T13:15:43.001Z,2.40
2023-05-21T13:18:13.177Z,3.42
2023-05-21T13:20:42.465Z,2.97
2023-05-21T13:23:11.928Z,2.95
2023-05-21T13:25:41.041Z,2.70
2023-05-21T13:28:13.440Z,2.75
2023-05-21T13:30:43.071Z,2.92
2023-05-21T13:33:12.803Z,3.42
2023-05-21T13:35:42.188Z,3.80
2023-05-21T13:38:11.138Z,3.28
2023-05-21T13:40:40.487Z,3.47
2023-05-21T13:43:09.742Z,2.97
2023-05-21T13:45:38.850Z,2.78
2023-05-21T13:48:07.974Z,2.65
2023-05-21T13:50:40.170Z,2.47
2023-05-21T13:53:09.282Z,2.80
2023-05-21T13:55:41.201Z,2.45
2023-05-21T13:58:10.311Z,2.75
2023-05-21T14:00:39.520Z,3.05
2023-05-21T14:03:10.718Z,2.70
2023-05-21T14:05:39.818Z,2.42
2023-05-21T14:08:08.983Z,2.70
2023-05-21T14:10:38.312Z,3.22
2023-05-21T14:13:15.828Z,2.63
2023-05-21T14:15:49.288Z,3.03
2023-05-21T14:18:18.355Z,3.58
2023-05-21T14:20:47.249Z,3.13
2023-05-21T14:23:16.763Z,2.90
2023-05-21T14:25:45.675Z,3.00
2023-05-21T14:28:14.789Z,2.30
2023-05-21T14:30:43.738Z,2.38
2023-05-21T14:33:14.150Z,2.80
2023-05-21T14:35:44.917Z,2.80
2023-05-21T14:38:13.907Z,1.83
2023-05-21T14:40:43.016Z,1.95
2023-05-21T14:43:11.994Z,2.40
2023-05-21T14:45:41.227Z,3.03
2023-05-21T14:48:10.254Z,2.20
2023-05-21T14:50:39.978Z,2.20
2023-05-21T14:53:13.798Z,2.28
2023-05-21T14:55:43.262Z,1.92
2023-05-21T14:58:14.642Z,2.10
2023-05-21T15:01:50.373Z,2.45
2023-05-21T15:04:22.887Z,1.80
2023-05-21T15:06:52.151Z,1.48
2023-05-21T15:09:21.317Z,1.67
2023-05-21T15:11:53.355Z,2.00
2023-05-21T15:14:22.435Z,1.58
2023-05-21T15:16:52.176Z,1.95
2023-05-21T15:19:21.856Z,1.50
2023-05-21T15:21:52.631Z,1.80
2023-05-21T15:24:21.630Z,1.35
2023-05-21T15:26:50.692Z,1.20
2023-05-21T15:29:19.711Z,1.23
2023-05-21T15:31:48.600Z,1.10
2023-05-21T15:34:18.840Z,1.13
2023-05-21T15:36:47.778Z,1.10
2023-05-21T15:39:16.756Z,0.90
2023-05-21T15:41:45.944Z,1.48
2023-05-21T15:44:14.925Z,0.93
2023-05-21T15:46:43.917Z,0.98
2023-05-21T15:49:12.989Z,1.05
2023-05-21T15:51:41.881Z,1.20
2023-05-21T15:54:11.645Z,0.90
2023-05-21T15:56:41.470Z,1.30
2023-05-21T15:59:10.455Z,0.82
2023-05-21T16:01:39.353Z,0.90
2023-05-21T16:04:08.991Z,0.90
2023-05-21T16:06:38.915Z,1.02
2023-05-21T16:09:08.364Z,1.00
2023-05-21T16:11:37.261Z,1.20
2023-05-21T16:14:06.437Z,1.25
2023-05-21T16:16:36.031Z,0.80
2023-05-21T16:19:05.625Z,1.20
2023-05-21T16:21:34.661Z,1.20
2023-05-21T16:24:04.175Z,1.02
2023-05-21T16:26:33.166Z,1.15
2023-05-21T16:29:02.457Z,1.00
2023-05-21T16:31:32.016Z,1.10
2023-05-21T16:34:01.121Z,0.90
2023-05-21T16:36:30.027Z,1.10
2023-05-21T16:38:59.050Z,1.10
2023-05-21T16:41:28.061Z,0.90
2023-05-21T16:43:57.063Z,1.92
2023-05-21T16:46:26.032Z,0.93
2023-05-21T16:48:55.058Z,1.00
2023-05-21T16:51:23.976Z,1.10
2023-05-21T16:53:53.016Z,1.10
2023-05-21T16:56:22.724Z,0.90
2023-05-21T16:58:51.766Z,1.50
2023-05-21T17:01:20.763Z,0.90
2023-05-21T17:03:49.993Z,1.10
2023-05-21T17:06:19.063Z,0.93
2023-05-21T17:08:48.188Z,0.85
2023-05-21T17:11:18.594Z,1.05
2023-05-21T17:13:48.952Z,1.00
2023-05-21T17:16:17.990Z,1.00
2023-05-21T17:18:46.893Z,0.85
2023-05-21T17:21:19.270Z,0.90
2023-05-21T17:23:48.296Z,1.00
2023-05-21T17:26:17.167Z,1.33
2023-05-21T17:28:46.141Z,1.02
2023-05-21T17:31:15.349Z,0.80
2023-05-21T17:33:44.521Z,0.93
2023-05-21T17:36:13.728Z,0.80
2023-05-21T17:38:42.782Z,0.98
2023-05-21T17:41:11.802Z,0.90
2023-05-21T17:43:40.772Z,1.10
2023-05-21T17:46:10.228Z,0.80
2023-05-21T17:48:39.334Z,0.88
2023-05-21T17:51:08.252Z,0.75
2023-05-21T17:53:37.207Z,0.80
2023-05-21T17:56:07.092Z,0.77
2023-05-21T17:58:36.177Z,0.70
2023-05-21T18:01:05.278Z,0.90
2023-05-21T18:03:34.853Z,0.80
2023-05-21T18:06:03.759Z,0.55
2023-05-21T18:08:32.999Z,0.70
2023-05-21T18:11:02.488Z,0.70
2023-05-21T18:13:31.691Z,0.70
2023-05-21T18:16:00.774Z,0.80
2023-05-21T18:18:29.701Z,0.60
2023-05-21T18:20:58.792Z,0.80
2023-05-21T18:23:28.804Z,0.60
2023-05-21T18:25:58.341Z,0.75
2023-05-21T18:28:30.094Z,0.70
2023-05-21T18:31:01.775Z,0.70
2023-05-21T18:33:31.774Z,0.70
2023-05-21T18:36:01.092Z,0.65
2023-05-21T18:38:30.022Z,0.60
2023-05-21T18:40:58.924Z,0.80
2023-05-21T18:43:27.970Z,0.85
2023-05-21T18:45:56.953Z,0.90
2023-05-21T18:48:25.947Z,0.63
2023-05-21T18:50:54.937Z,0.80
2023-05-21T18:53:23.924Z,0.60
2023-05-21T18:55:52.882Z,0.60
2023-05-21T18:58:21.895Z,0.88
2023-05-21T19:00:50.822Z,0.75
2023-05-21T19:03:19.805Z,0.90
2023-05-21T19:05:48.896Z,0.70
2023-05-21T19:08:18.012Z,1.00
2023-05-21T19:10:46.885Z,0.93
2023-05-21T19:13:15.987Z,1.00
2023-05-21T19:15:47.739Z,0.90
2023-05-21T19:18:18.034Z,1.02
2023-05-21T19:20:47.138Z,0.90
2023-05-21T19:23:16.523Z,1.08
2023-05-21T19:25:45.543Z,0.90
2023-05-21T19:28:14.396Z,1.20
2023-05-21T19:30:43.414Z,1.00
2023-05-21T19:33:12.874Z,1.15
2023-05-21T19:35:43.941Z,1.30
2023-05-21T19:38:13.113Z,1.20
2023-05-21T19:40:42.167Z,1.10
2023-05-21T19:43:11.229Z,1.13
2023-05-21T19:45:40.429Z,1.33
2023-05-21T19:48:09.483Z,1.20
2023-05-21T19:50:38.705Z,1.30
2023-05-21T19:53:08.312Z,1.30
2023-05-21T19:55:38.288Z,1.60
2023-05-21T19:58:07.294Z,1.00
2023-05-21T20:00:36.695Z,0.80
2023-05-21T20:03:07.648Z,0.80
2023-05-21T20:05:37.027Z,0.90
2023-05-21T20:08:06.629Z,0.80
2023-05-21T20:10:36.610Z,1.40
2023-05-21T20:13:05.712Z,1.13
2023-05-21T20:15:35.146Z,1.00
2023-05-21T20:18:04.713Z,1.10
2023-05-21T20:20:37.745Z,1.25
2023-05-21T20:23:07.328Z,1.40
2023-05-21T20:25:36.727Z,1.50
2023-05-21T20:28:06.385Z,1.48
2023-05-21T20:30:52.247Z,1.40
2023-05-21T20:33:21.707Z,1.17
2023-05-21T20:35:50.804Z,1.50
2023-05-21T20:38:21.878Z,1.00
2023-05-21T20:40:50.838Z,1.30
2023-05-21T20:43:20.823Z,1.40
2023-05-21T20:45:50.075Z,1.38
2023-05-21T20:48:19.683Z,1.42
2023-05-21T20:50:50.497Z,1.40
2023-05-21T20:53:20.292Z,1.45
2023-05-21T20:55:49.325Z,1.60
2023-05-21T20:58:18.307Z,1.40
2023-05-21T21:00:47.403Z,1.65
2023-05-21T21:03:18.609Z,1.50
2023-05-21T21:05:47.689Z,1.70
2023-05-21T21:08:17.022Z,1.65
2023-05-21T21:10:47.706Z,1.38
2023-05-21T21:13:16.832Z,1.30
2023-05-21T21:15:45.755Z,1.20
2023-05-21T21:18:15.333Z,1.70
2023-05-21T21:20:48.688Z,1.58
2023-05-21T21:23:17.830Z,1.50
2023-05-21T21:25:47.111Z,2.97
2023-05-21T21:28:16.242Z,1.63
2023-05-21T21:30:45.941Z,1.60
2023-05-21T21:33:17.125Z,1.92
2023-05-21T21:35:46.581Z,1.65
2023-05-21T21:38:15.745Z,1.52
2023-05-21T21:40:44.782Z,1.50
2023-05-21T21:43:13.665Z,1.40
2023-05-21T21:45:45.906Z,1.75
2023-05-21T21:48:14.970Z,1.48
2023-05-21T21:50:43.882Z,1.50
2023-05-21T21:53:14.822Z,1.60
2023-05-21T21:55:43.899Z,1.85
2023-05-21T21:58:13.166Z,3.67
2023-05-21T22:00:42.170Z,4.10
2023-05-21T22:03:14.589Z,4.00
2023-05-21T22:05:44.143Z,2.60
2023-05-21T22:08:13.344Z,2.33
2023-05-21T22:10:42.360Z,2.90
2023-05-21T22:13:13.745Z,3.30
2023-05-21T22:15:42.721Z,3.05
2023-05-21T22:18:12.910Z,2.60
2023-05-21T22:20:42.180Z,2.05
2023-05-21T22:23:11.098Z,2.00
2023-05-21T22:25:40.154Z,2.20
2023-05-21T22:28:09.354Z,2.65
2023-05-21T22:30:40.208Z,2.72
2023-05-21T22:33:09.600Z,2.15
2023-05-21T22:35:38.502Z,2.83
2023-05-21T22:38:07.462Z,2.28
2023-05-21T22:40:36.975Z,2.28
2023-05-21T22:43:06.522Z,2.63
2023-05-21T22:45:36.746Z,2.30
2023-05-21T22:48:09.408Z,2.13
2023-05-21T22:50:39.577Z,1.70
2023-05-21T22:53:11.310Z,1.67
2023-05-21T22:55:40.477Z,1.70
2023-05-21T22:58:09.391Z,2.00
2023-05-21T23:00:38.679Z,2.45
2023-05-21T23:03:07.850Z,2.03
2023-05-21T23:05:37.038Z,1.70
2023-05-21T23:08:06.345Z,1.38
2023-05-21T23:10:37.328Z,1.63
2023-05-21T23:13:06.821Z,1.15
2023-05-21T23:15:39.536Z,1.40
2023-05-21T23:18:09.286Z,1.40
2023-05-21T23:20:41.975Z,1.80
2023-05-21T23:23:11.957Z,2.00
2023-05-21T23:25:40.890Z,1.75
2023-05-21T23:28:10.254Z,1.85
2023-05-21T23:30:39.554Z,1.70
2023-05-21T23:33:08.870Z,1.55
2023-05-21T23:35:37.861Z,1.70
2023-05-21T23:38:06.827Z,1.42
2023-05-21T23:40:36.099Z,1.25
2023-05-21T23:43:05.704Z,1.70
2023-05-21T23:45:34.953Z,1.73
2023-05-21T23:48:04.153Z,1.50
2023-05-21T23:50:33.468Z,1.42
2023-05-21T23:53:02.857Z,1.58
2023-05-21T23:55:31.770Z,1.38
2023-05-21T23:58:00.946Z,1.85
